Valley City, Illinois
Current Conditions -  °F | °C
As of 12:15 PM on Thursday 29 Jan 2015 (Local Time) from KPPQ Reporting Station
Overcast Overcast  
Wind Chill: 31°   Ceiling: 2100
Heat Index: 39°   Visibility: 10mi
Dew Point: 32°   Wind: 16mph
Humidity: 75%   Direction: 310°NW
Pressure: 30.15"   Gusts: 25mph
Location:  39.7046°N, 90.7176°W
Report Text: KPPQ 291815Z AUTO 31014G22KT 10SM OVC021 04/00 A3015 RMK AO2 T00410001
Loading
Personal Weather Stations






























Interactive Weather Map New forecast layout! Learn more

10-Day Weather Forecast

Advertisements
Track Severe Weather on mobile